Winnebago, IL

4:10 PM CST on November 27, 2014 (GMT -0600)
Resh Farms | Change Station
CLOSE
Current Station
Personal Weather Station
Location: Winnebago, IL
Elevation: 899 ft
Nearby Weather Stations

Elev 899 ft 42.26 °N, 89.24 °W | Updated 25 minutes ago

Overcast
Overcast
22.2 °F
Feels Like 22 °F
N
2.5
Wind Variable Wind from North
Gusts 6.0 mph

Today
High -- | Low -- °F
--% Chance of Precip.
Yesterday
High -- | Low -- °F
Precip. -- in
7:01 AM 4:27 PM
Waxing Crescent, 33% visible
Pressure 30.45 in
Visibility 10.0 miles
Clouds Mostly Cloudy 3200 ft
Windchill 22 °F
Dew Point 15 °F
Humidity 72%
Rainfall 0.00 in
Snow Depth Not available.
UV 0 out of 12
Pollen .10 out of 12
Air Quality Not available.
Flu Activity Not available.
METAR KRFD 272154Z 32006KT 10SM -SN BKN032 M06/M12 A3041 RMK AO2 SLP310 P0000 T10611122

More Conditions Fewer Conditions

Pressure 30.45 in
Visibility 10.0 miles
Clouds Mostly Cloudy 3200 ft
Windchill 22 °F
Dew Point 15 °F
Humidity 72%
Rainfall 0.00 in
Snow Depth Not available.
UV 0 out of 12
Pollen .10 out of 12
Air Quality Not available.
Flu Activity Not available.
METAR KRFD 272154Z 32006KT 10SM -SN BKN032 M06/M12 A3041 RMK AO2 SLP310 P0000 T10611122

More Conditions Fewer Conditions

10-Day Weather Forecast

Almanac

Astronomy

Nov. 27, 2014 Rise Set
Actual Time
Civil Twilight
Nautical Twilight
Astronomical Twilight
Moon
Length of Visible Light
Length of Day
Tomorrow will be .
, % of the Moon is Illuminated

Today's Extremes

State Highs State Lows

Community

WunderPhotos

Upload Photos

1,774,124 photos uploaded!

WunderBlogs® & News

Nearby

Air Quality

  Air Quality AQ Index Pollutant
Not available.

Snow Depth

Station Depth Elevation

Earthquake Activity

City Distance Mag. Time & Date
Minimum magnitude displayed is 2.5.

Coastal Water Temperatures

Place Temperature

Nearby Weather Stations